createdAt,value
2023-04-14T00:01:47.888Z,1.13
2023-04-14T00:04:17.558Z,1.00
2023-04-14T00:06:48.226Z,1.53
2023-04-14T00:09:17.097Z,1.80
2023-04-14T00:11:48.160Z,1.63
2023-04-14T00:14:16.913Z,1.40
2023-04-14T00:16:46.922Z,1.70
2023-04-14T00:19:19.510Z,0.70
2023-04-14T00:21:48.413Z,1.20
2023-04-14T00:24:17.470Z,1.77
2023-04-14T00:26:48.472Z,1.57
2023-04-14T00:29:17.506Z,1.20
2023-04-14T00:31:46.841Z,1.10
2023-04-14T00:34:15.658Z,0.93
2023-04-14T00:36:44.547Z,1.00
2023-04-14T00:39:13.475Z,1.13
2023-04-14T00:41:43.502Z,0.73
2023-04-14T00:44:14.293Z,1.47
2023-04-14T00:46:44.014Z,1.10
2023-04-14T00:49:13.045Z,1.83
2023-04-14T00:51:42.536Z,1.00
2023-04-14T00:54:12.030Z,1.47
2023-04-14T00:56:41.199Z,1.27
2023-04-14T00:59:10.206Z,1.37
2023-04-14T01:01:41.602Z,1.43
2023-04-14T01:04:10.812Z,1.63
2023-04-14T01:06:41.274Z,1.30
2023-04-14T01:09:11.125Z,1.13
2023-04-14T01:11:48.892Z,1.17
2023-04-14T01:14:20.958Z,0.83
2023-04-14T01:16:53.851Z,1.33
2023-04-14T01:19:33.878Z,1.27
2023-04-14T01:22:06.374Z,1.50
2023-04-14T01:24:43.290Z,2.73
2023-04-14T01:27:20.872Z,1.97
2023-04-14T01:30:02.873Z,1.83
2023-04-14T01:32:36.011Z,2.10
2023-04-14T01:35:07.779Z,1.07
2023-04-14T01:37:39.576Z,0.97
2023-04-14T01:40:13.059Z,1.20
2023-04-14T01:42:45.124Z,1.00
2023-04-14T01:45:18.921Z,1.63
2023-04-14T01:47:50.118Z,1.80
2023-04-14T01:50:19.728Z,0.90
2023-04-14T01:52:50.726Z,1.10
2023-04-14T01:55:20.703Z,1.70
2023-04-14T01:57:51.885Z,1.57
2023-04-14T02:00:22.360Z,0.90
2023-04-14T02:02:53.521Z,1.20
2023-04-14T02:05:24.037Z,2.07
2023-04-14T02:07:53.832Z,1.70
2023-04-14T02:10:24.096Z,1.33
2023-04-14T02:12:53.771Z,0.73
2023-04-14T02:15:22.852Z,1.37
2023-04-14T02:17:53.505Z,1.27
2023-04-14T02:20:23.836Z,1.30
2023-04-14T02:22:52.765Z,1.00
2023-04-14T02:25:23.389Z,0.97
2023-04-14T02:27:58.908Z,1.47
2023-04-14T02:30:31.959Z,1.77
2023-04-14T02:33:04.350Z,1.73
2023-04-14T02:35:38.195Z,1.80
2023-04-14T02:38:09.466Z,0.77
2023-04-14T02:40:40.310Z,0.80
2023-04-14T02:43:13.859Z,1.10
2023-04-14T02:45:44.535Z,1.00
2023-04-14T02:48:17.201Z,2.53
2023-04-14T02:50:48.018Z,1.83
2023-04-14T02:53:19.038Z,2.37
2023-04-14T02:55:49.199Z,1.10
2023-04-14T02:58:18.654Z,0.70
2023-04-14T03:00:49.783Z,1.10
2023-04-14T03:03:20.748Z,2.60
2023-04-14T03:05:50.430Z,1.10
2023-04-14T03:08:21.753Z,1.13
2023-04-14T03:10:52.106Z,1.03
2023-04-14T03:13:22.556Z,1.03
2023-04-14T03:15:52.572Z,2.07
2023-04-14T03:18:23.668Z,1.40
2023-04-14T03:20:56.020Z,2.10
2023-04-14T03:23:25.416Z,1.63
2023-04-14T03:25:55.280Z,2.30
2023-04-14T03:28:28.778Z,1.23
2023-04-14T03:31:01.744Z,2.50
2023-04-14T03:33:34.141Z,1.70
2023-04-14T03:36:03.270Z,1.37
2023-04-14T03:38:34.034Z,2.13
2023-04-14T03:41:05.802Z,2.07
2023-04-14T03:43:35.716Z,1.97
2023-04-14T03:46:07.158Z,1.57
2023-04-14T03:48:42.783Z,1.40
2023-04-14T03:51:15.022Z,1.00
2023-04-14T03:53:45.015Z,1.33
2023-04-14T03:56:14.881Z,0.80
2023-04-14T03:58:47.484Z,1.80
2023-04-14T04:01:17.108Z,1.50
2023-04-14T04:03:48.726Z,0.80
2023-04-14T04:06:18.189Z,3.10
2023-04-14T04:08:48.433Z,2.30
2023-04-14T04:11:19.259Z,1.93
2023-04-14T04:13:49.613Z,2.67
2023-04-14T04:16:18.683Z,1.10
2023-04-14T04:18:50.938Z,1.60
2023-04-14T04:21:20.636Z,0.97
2023-04-14T04:23:53.580Z,1.43
2023-04-14T04:26:23.779Z,2.20
2023-04-14T04:28:53.339Z,1.30
2023-04-14T04:31:22.667Z,1.73
2023-04-14T04:33:53.653Z,2.03
2023-04-14T04:36:22.944Z,1.47
2023-04-14T04:38:53.112Z,1.53
2023-04-14T04:41:25.373Z,1.07
2023-04-14T04:43:54.129Z,1.90
2023-04-14T04:46:47.117Z,1.47
2023-04-14T04:49:17.273Z,1.30
2023-04-14T04:51:46.421Z,1.00
2023-04-14T04:54:15.371Z,1.83
2023-04-14T04:56:44.462Z,1.63
2023-04-14T04:59:13.927Z,1.47
2023-04-14T05:01:43.543Z,2.20
2023-04-14T05:04:12.405Z,1.70
2023-04-14T05:06:43.542Z,1.17
2023-04-14T05:09:14.280Z,1.90
2023-04-14T05:11:52.337Z,1.47
2023-04-14T05:14:21.270Z,0.93
2023-04-14T05:16:50.637Z,1.60
2023-04-14T05:19:20.200Z,2.73
2023-04-14T05:21:50.837Z,1.67
2023-04-14T05:24:19.745Z,2.60
2023-04-14T05:27:09.380Z,1.87
2023-04-14T05:29:37.336Z,2.10
2023-04-14T05:32:07.042Z,2.97
2023-04-14T05:34:35.893Z,2.20
2023-04-14T05:37:06.299Z,2.07
2023-04-14T05:39:35.681Z,2.53
2023-04-14T05:42:06.250Z,1.50
2023-04-14T05:44:35.248Z,2.27
2023-04-14T05:47:08.727Z,2.40
2023-04-14T05:49:43.424Z,2.70
2023-04-14T05:52:25.298Z,1.77
2023-04-14T05:54:58.767Z,2.63
2023-04-14T05:57:28.796Z,2.47
2023-04-14T05:59:58.570Z,3.30
2023-04-14T06:02:32.672Z,3.73
2023-04-14T06:05:05.445Z,2.70
2023-04-14T06:07:38.646Z,2.43
2023-04-14T06:10:10.788Z,2.20
2023-04-14T06:12:40.061Z,1.87
2023-04-14T06:15:09.583Z,2.33
2023-04-14T06:17:40.155Z,2.43
2023-04-14T06:20:10.376Z,2.20
2023-04-14T06:22:43.564Z,2.07
2023-04-14T06:25:13.532Z,1.90
2023-04-14T06:27:42.859Z,2.07
2023-04-14T06:30:12.367Z,1.90
2023-04-14T06:32:41.698Z,1.50
2023-04-14T06:35:19.051Z,1.70
2023-04-14T06:37:56.862Z,2.60
2023-04-14T06:40:26.004Z,1.77
2023-04-14T06:43:11.018Z,1.60
2023-04-14T06:45:40.209Z,1.63
2023-04-14T06:48:09.360Z,1.50
2023-04-14T06:50:38.603Z,1.83
2023-04-14T06:53:09.789Z,1.60
2023-04-14T06:55:38.654Z,1.63
2023-04-14T06:58:08.108Z,1.60
2023-04-14T07:00:38.453Z,1.97
2023-04-14T07:03:09.350Z,2.93
2023-04-14T07:05:38.388Z,2.60
2023-04-14T07:08:09.069Z,2.90
2023-04-14T07:10:40.874Z,2.40
2023-04-14T07:13:11.299Z,1.83
2023-04-14T07:15:41.545Z,1.67
2023-04-14T07:18:10.541Z,1.97
2023-04-14T07:20:39.716Z,2.70
2023-04-14T07:23:08.632Z,2.20
2023-04-14T07:25:38.463Z,2.97
2023-04-14T07:28:08.908Z,3.40
2023-04-14T07:30:38.392Z,2.30
2023-04-14T07:33:07.384Z,2.97
2023-04-14T07:35:36.463Z,2.90
2023-04-14T07:38:05.723Z,1.90
2023-04-14T07:40:38.367Z,4.43
2023-04-14T07:43:11.801Z,7.77
2023-04-14T07:45:41.059Z,6.80
2023-04-14T07:48:10.670Z,4.70
2023-04-14T07:50:40.058Z,3.17
2023-04-14T07:53:09.610Z,3.27
2023-04-14T07:55:38.960Z,2.77
2023-04-14T07:58:08.901Z,2.00
2023-04-14T08:00:40.261Z,2.03
2023-04-14T08:03:10.575Z,3.03
2023-04-14T08:05:40.634Z,2.33
2023-04-14T08:08:10.716Z,2.13
2023-04-14T08:10:40.555Z,1.63
2023-04-14T08:13:09.892Z,1.27
2023-04-14T08:15:41.241Z,2.03
2023-04-14T08:18:10.435Z,1.40
2023-04-14T08:20:39.966Z,1.47
2023-04-14T08:23:08.714Z,1.30
2023-04-14T08:25:47.739Z,1.23
2023-04-14T08:28:16.899Z,1.30
2023-04-14T08:30:57.705Z,1.43
2023-04-14T08:33:29.980Z,1.43
2023-04-14T08:35:59.659Z,1.67
2023-04-14T08:38:30.436Z,1.10
2023-04-14T08:40:59.786Z,1.33
2023-04-14T08:43:29.077Z,1.00
2023-04-14T08:46:02.090Z,0.60
2023-04-14T08:48:32.520Z,0.60
2023-04-14T08:51:07.198Z,0.83
2023-04-14T08:53:38.561Z,1.17
2023-04-14T08:56:09.750Z,1.27
2023-04-14T08:58:42.440Z,1.40
2023-04-14T09:01:15.650Z,1.13
2023-04-14T09:03:46.321Z,0.60
2023-04-14T09:06:20.246Z,1.20
2023-04-14T09:08:49.768Z,1.10
2023-04-14T09:11:20.440Z,1.40
2023-04-14T09:13:51.464Z,1.07
2023-04-14T09:16:32.842Z,0.90
2023-04-14T09:19:07.968Z,0.93
2023-04-14T09:21:52.287Z,1.30
2023-04-14T09:24:32.480Z,0.83
2023-04-14T09:27:04.253Z,0.80
2023-04-14T09:29:34.283Z,1.00
2023-04-14T09:32:05.957Z,0.73
2023-04-14T09:34:35.275Z,0.70
2023-04-14T09:37:06.037Z,1.80
2023-04-14T09:39:38.764Z,0.70
2023-04-14T09:42:08.234Z,0.93
2023-04-14T09:44:54.811Z,0.53
2023-04-14T09:47:26.571Z,1.37
2023-04-14T09:50:00.965Z,0.87
2023-04-14T09:52:40.025Z,0.77
2023-04-14T09:55:10.242Z,1.40
2023-04-14T09:57:48.153Z,1.10
2023-04-14T10:00:22.348Z,1.33
2023-04-14T10:02:56.555Z,1.07
2023-04-14T10:05:29.028Z,0.80
2023-04-14T10:08:03.608Z,0.57
2023-04-14T10:10:36.004Z,0.90
2023-04-14T10:13:26.555Z,1.13
2023-04-14T10:15:56.366Z,1.60
2023-04-14T10:18:36.498Z,0.93
2023-04-14T10:21:10.873Z,0.73
2023-04-14T10:23:41.914Z,0.80
2023-04-14T10:26:13.160Z,1.20
2023-04-14T10:28:47.322Z,1.10
2023-04-14T10:31:21.148Z,0.53
2023-04-14T10:33:52.849Z,0.90
2023-04-14T10:36:32.976Z,1.40
2023-04-14T10:39:06.213Z,0.70
2023-04-14T10:42:03.228Z,1.63
2023-04-14T10:44:35.225Z,1.87
2023-04-14T10:47:05.936Z,0.97
2023-04-14T10:49:39.721Z,0.50
2023-04-14T10:52:09.684Z,1.00
2023-04-14T10:55:01.633Z,0.60
2023-04-14T10:57:36.164Z,1.40
2023-04-14T11:00:42.556Z,0.80
2023-04-14T11:03:13.458Z,0.70
2023-04-14T11:05:48.929Z,0.70
2023-04-14T11:08:21.691Z,0.70
2023-04-14T11:10:53.175Z,0.80
2023-04-14T11:13:24.224Z,0.63
2023-04-14T11:15:56.139Z,0.90
2023-04-14T11:18:45.619Z,0.90
2023-04-14T11:21:33.648Z,1.00
2023-04-14T11:24:11.201Z,0.90
2023-04-14T11:26:45.202Z,0.70
2023-04-14T11:29:20.795Z,0.60
2023-04-14T11:31:53.751Z,0.60
2023-04-14T11:34:39.087Z,0.80
2023-04-14T11:37:17.978Z,0.43
2023-04-14T11:39:49.827Z,1.67
2023-04-14T11:42:19.838Z,0.83
2023-04-14T11:44:53.774Z,0.87
2023-04-14T11:47:24.676Z,1.27
2023-04-14T11:49:54.451Z,0.70
2023-04-14T11:52:31.450Z,0.60
2023-04-14T11:55:08.603Z,0.80
2023-04-14T11:57:53.378Z,0.80
2023-04-14T12:00:23.232Z,0.60
2023-04-14T12:02:57.592Z,0.80
2023-04-14T12:05:31.786Z,0.70
2023-04-14T12:08:04.918Z,0.73
2023-04-14T12:10:34.915Z,1.43
2023-04-14T12:13:08.596Z,0.50
2023-04-14T12:15:39.163Z,0.77
2023-04-14T12:18:10.288Z,0.93
2023-04-14T12:20:45.976Z,0.37
2023-04-14T12:23:19.152Z,0.67
2023-04-14T12:25:48.630Z,0.87
2023-04-14T12:28:21.507Z,1.70
2023-04-14T12:31:00.162Z,0.70
2023-04-14T12:33:32.397Z,0.67
2023-04-14T12:36:08.029Z,0.60
2023-04-14T12:38:39.286Z,0.60
2023-04-14T12:41:08.411Z,0.50
2023-04-14T12:43:49.925Z,0.70
2023-04-14T12:46:27.787Z,0.67
2023-04-14T12:48:58.698Z,1.07
2023-04-14T12:51:28.831Z,0.30
2023-04-14T12:54:11.792Z,0.60
2023-04-14T12:56:44.935Z,0.53
2023-04-14T12:59:17.559Z,1.07
2023-04-14T13:01:53.005Z,1.77
2023-04-14T13:04:28.618Z,1.27
2023-04-14T13:06:57.854Z,0.63
2023-04-14T13:09:30.318Z,0.67
2023-04-14T13:12:06.810Z,0.60
2023-04-14T13:14:43.138Z,0.97
2023-04-14T13:17:14.730Z,0.93
2023-04-14T13:19:57.716Z,0.50
2023-04-14T13:22:31.457Z,0.30
2023-04-14T13:25:13.630Z,0.60
2023-04-14T13:27:45.882Z,1.50
2023-04-14T13:30:17.963Z,1.67
2023-04-14T13:32:48.916Z,1.37
2023-04-14T13:35:31.322Z,0.80
2023-04-14T13:38:02.943Z,0.80
2023-04-14T13:40:53.498Z,0.80
2023-04-14T13:43:24.167Z,0.50
2023-04-14T13:45:58.647Z,1.30
2023-04-14T13:48:42.892Z,0.50
2023-04-14T13:51:27.645Z,0.90
2023-04-14T13:54:06.508Z,0.60
2023-04-14T13:56:38.373Z,0.43
2023-04-14T13:59:07.833Z,0.83
2023-04-14T14:01:37.287Z,0.80
2023-04-14T14:04:13.330Z,0.80
2023-04-14T14:06:43.152Z,1.00
2023-04-14T14:09:13.075Z,1.00
2023-04-14T14:11:49.538Z,0.83
2023-04-14T14:14:18.947Z,0.50
2023-04-14T14:16:49.988Z,0.43
2023-04-14T14:19:21.436Z,1.00
2023-04-14T14:21:50.792Z,0.90
2023-04-14T14:24:20.440Z,1.20
2023-04-14T14:26:51.921Z,0.40
2023-04-14T14:29:24.777Z,0.60
2023-04-14T14:31:54.409Z,0.40
2023-04-14T14:34:27.113Z,0.50
2023-04-14T14:36:56.235Z,0.50
2023-04-14T14:39:26.473Z,0.40
2023-04-14T14:41:57.571Z,0.77
2023-04-14T14:44:27.831Z,1.13
2023-04-14T14:46:57.498Z,0.90
2023-04-14T14:49:27.454Z,1.10
2023-04-14T14:51:59.238Z,1.03
2023-04-14T14:54:28.904Z,0.30
2023-04-14T14:56:59.570Z,0.73
2023-04-14T14:59:28.854Z,1.13
2023-04-14T15:01:58.497Z,0.40
2023-04-14T15:04:28.381Z,4.30
2023-04-14T15:06:57.491Z,2.07
2023-04-14T15:09:26.877Z,1.03
2023-04-14T15:11:55.790Z,1.20
2023-04-14T15:14:27.457Z,0.87
2023-04-14T15:16:56.860Z,1.03
2023-04-14T15:19:28.212Z,0.53
2023-04-14T15:22:07.226Z,0.60
2023-04-14T15:24:50.999Z,0.60
2023-04-14T15:27:20.759Z,0.53
2023-04-14T15:29:51.813Z,0.70
2023-04-14T15:32:25.438Z,0.40
2023-04-14T15:34:57.544Z,0.60
2023-04-14T15:37:30.247Z,0.60
2023-04-14T15:39:59.456Z,0.30
2023-04-14T15:42:29.392Z,0.67
2023-04-14T15:45:00.088Z,0.50
2023-04-14T15:47:29.526Z,0.50
2023-04-14T15:50:10.032Z,0.80
2023-04-14T15:52:40.262Z,0.80
2023-04-14T15:55:11.839Z,0.57
2023-04-14T15:57:41.798Z,0.60
2023-04-14T16:00:16.818Z,0.43
2023-04-14T16:02:47.245Z,0.60
2023-04-14T16:05:31.272Z,0.60
2023-04-14T16:08:00.860Z,0.80
2023-04-14T16:10:31.218Z,0.70
2023-04-14T16:13:01.151Z,0.67
2023-04-14T16:15:32.911Z,0.70
2023-04-14T16:18:02.287Z,1.00
2023-04-14T16:20:31.306Z,2.43
2023-04-14T16:23:01.013Z,0.90
2023-04-14T16:25:30.388Z,0.73
2023-04-14T16:28:00.283Z,0.50
2023-04-14T16:30:30.244Z,0.60
2023-04-14T16:33:01.067Z,0.70
2023-04-14T16:35:30.373Z,1.07
2023-04-14T16:37:59.642Z,0.53
2023-04-14T16:40:31.446Z,0.70
2023-04-14T16:43:00.331Z,0.50
2023-04-14T16:45:33.661Z,1.43
2023-04-14T16:48:04.235Z,1.00
2023-04-14T16:50:35.606Z,1.10
2023-04-14T16:53:07.347Z,0.50
2023-04-14T16:55:36.448Z,0.93
2023-04-14T16:58:05.631Z,0.77
2023-04-14T17:00:34.673Z,0.90
2023-04-14T17:03:06.453Z,1.43
2023-04-14T17:05:35.907Z,0.40
2023-04-14T17:08:07.028Z,0.60
2023-04-14T17:10:36.110Z,0.70
2023-04-14T17:13:05.290Z,0.93
2023-04-14T17:15:35.015Z,1.00
2023-04-14T17:18:07.781Z,1.20
2023-04-14T17:20:49.677Z,1.40
2023-04-14T17:23:25.641Z,0.90
2023-04-14T17:25:59.858Z,0.60
2023-04-14T17:28:36.030Z,0.70
2023-04-14T17:31:17.524Z,2.47
2023-04-14T17:33:52.839Z,1.00
2023-04-14T17:36:23.930Z,1.57
2023-04-14T17:38:54.499Z,1.47
2023-04-14T17:41:25.860Z,1.00
2023-04-14T17:44:01.512Z,0.70
2023-04-14T17:46:48.973Z,0.83
2023-04-14T17:49:21.859Z,2.07
2023-04-14T17:51:51.655Z,1.50
2023-04-14T17:54:21.354Z,1.00
2023-04-14T17:56:53.066Z,1.43
2023-04-14T17:59:28.034Z,1.27
2023-04-14T18:01:59.439Z,1.73
2023-04-14T18:04:34.508Z,1.63
2023-04-14T18:09:55.966Z,1.60
2023-04-14T18:12:37.292Z,1.27
2023-04-14T18:21:33.652Z,1.50
2023-04-14T18:33:35.067Z,1.70
2023-04-14T18:36:12.541Z,2.27
2023-04-14T18:38:43.913Z,1.47
2023-04-14T18:41:29.344Z,1.20
2023-04-14T18:44:04.246Z,1.60
2023-04-14T18:46:47.323Z,2.13
2023-04-14T18:49:22.859Z,1.57
2023-04-14T18:51:57.653Z,1.50
2023-04-14T18:54:28.424Z,1.10
2023-04-14T18:57:01.068Z,1.37
2023-04-14T18:59:32.428Z,1.37
2023-04-14T19:02:05.128Z,1.57
2023-04-14T19:04:38.875Z,1.73
2023-04-14T19:07:22.062Z,1.77
2023-04-14T19:09:57.040Z,1.53
2023-04-14T19:12:31.145Z,2.00
2023-04-14T19:15:03.218Z,2.07
2023-04-14T19:17:41.396Z,1.80
2023-04-14T19:20:12.587Z,1.00
2023-04-14T19:22:42.875Z,2.00
2023-04-14T19:25:16.335Z,1.00
2023-04-14T19:27:51.114Z,0.80
2023-04-14T19:30:21.274Z,2.00
2023-04-14T19:32:51.213Z,1.87
2023-04-14T19:35:20.450Z,1.00
2023-04-14T19:37:50.476Z,1.80
2023-04-14T19:40:21.919Z,1.33
2023-04-14T19:43:00.653Z,2.30
2023-04-14T19:45:29.758Z,1.80
2023-04-14T19:47:58.851Z,1.27
2023-04-14T19:50:30.108Z,2.33
2023-04-14T19:53:00.263Z,1.87
2023-04-14T19:55:42.728Z,1.57
2023-04-14T19:58:34.129Z,1.90
2023-04-14T20:01:10.194Z,1.53
2023-04-14T20:03:39.606Z,1.60
2023-04-14T20:06:31.530Z,2.87
2023-04-14T20:09:03.124Z,2.60
2023-04-14T20:11:33.186Z,1.87
2023-04-14T20:14:04.289Z,1.70
2023-04-14T20:16:35.599Z,1.33
2023-04-14T20:19:16.266Z,1.77
2023-04-14T20:21:46.055Z,1.40
2023-04-14T20:24:18.783Z,1.77
2023-04-14T20:26:51.987Z,1.87
2023-04-14T20:29:22.904Z,2.10
2023-04-14T20:31:55.905Z,1.77
2023-04-14T20:34:25.600Z,2.17
2023-04-14T20:36:56.700Z,1.37
2023-04-14T20:39:28.360Z,2.07
2023-04-14T20:41:58.473Z,2.60
2023-04-14T20:44:30.076Z,2.23
2023-04-14T20:47:02.055Z,2.00
2023-04-14T20:49:34.219Z,2.40
2023-04-14T20:52:05.251Z,1.60
2023-04-14T20:54:34.769Z,1.50
2023-04-14T20:57:05.744Z,1.73
2023-04-14T20:59:35.112Z,1.90
2023-04-14T21:02:06.411Z,1.90
2023-04-14T21:04:37.328Z,3.23
2023-04-14T21:07:06.932Z,1.37
2023-04-14T21:09:36.446Z,2.10
2023-04-14T21:12:14.959Z,4.10
2023-04-14T21:15:39.842Z,6.60
2023-04-14T21:17:36.834Z,2.43
2023-04-14T21:20:06.971Z,4.63
2023-04-14T21:22:42.078Z,2.87
2023-04-14T21:25:13.207Z,2.23
2023-04-14T21:27:43.753Z,3.47
2023-04-14T21:30:16.473Z,2.27
2023-04-14T21:32:47.390Z,3.27
2023-04-14T21:35:19.317Z,2.17
2023-04-14T21:37:48.326Z,4.37
2023-04-14T21:40:17.759Z,2.67
2023-04-14T21:42:46.981Z,1.80
2023-04-14T21:45:16.210Z,2.67
2023-04-14T21:47:47.074Z,3.00
2023-04-14T21:50:22.228Z,5.50
2023-04-14T21:52:51.668Z,3.40
2023-04-14T21:55:21.013Z,3.20
2023-04-14T21:57:52.052Z,3.90
2023-04-14T22:00:21.769Z,3.60
2023-04-14T22:02:52.270Z,4.93
2023-04-14T22:05:21.437Z,2.47
2023-04-14T22:07:50.414Z,2.90
2023-04-14T22:10:20.997Z,2.67
2023-04-14T22:12:54.001Z,2.90
2023-04-14T22:15:23.718Z,3.47
2023-04-14T22:17:55.053Z,3.50
2023-04-14T22:20:26.693Z,3.23
2023-04-14T22:22:56.013Z,2.67
2023-04-14T22:25:26.337Z,2.57
2023-04-14T22:27:56.688Z,3.37
2023-04-14T22:30:28.544Z,2.50
2023-04-14T22:32:59.312Z,3.70
2023-04-14T22:35:28.730Z,2.60
2023-04-14T22:37:58.445Z,2.60
2023-04-14T22:40:28.398Z,2.30
2023-04-14T22:43:04.717Z,3.70
2023-04-14T22:45:35.512Z,3.53
2023-04-14T22:48:07.247Z,3.80
2023-04-14T22:50:36.116Z,3.30
2023-04-14T22:53:07.058Z,3.27
2023-04-14T22:55:36.339Z,3.03
2023-04-14T22:58:06.951Z,2.57
2023-04-14T23:00:36.366Z,3.03
2023-04-14T23:03:07.997Z,2.53
2023-04-14T23:05:36.862Z,3.50
2023-04-14T23:08:05.610Z,2.20
2023-04-14T23:10:35.978Z,2.80
2023-04-14T23:13:05.418Z,2.23
2023-04-14T23:15:34.354Z,2.77
2023-04-14T23:18:04.275Z,2.53
2023-04-14T23:20:35.196Z,3.23
2023-04-14T23:23:04.922Z,5.30
2023-04-14T23:25:35.198Z,4.33
2023-04-14T23:28:04.315Z,4.03
2023-04-14T23:30:35.495Z,3.10
2023-04-14T23:33:04.907Z,3.10
2023-04-14T23:35:38.155Z,3.43
2023-04-14T23:38:07.564Z,3.97
2023-04-14T23:40:37.267Z,3.43
2023-04-14T23:43:06.394Z,3.30
2023-04-14T23:45:37.506Z,3.30
2023-04-14T23:48:08.537Z,5.20
2023-04-14T23:51:01.193Z,2.40
2023-04-14T23:53:28.341Z,2.80
2023-04-14T23:56:06.620Z,3.10
2023-04-14T23:58:36.155Z,3.53
